Terminal Aerodrome Forecast
Issued by NWS Raleigh/Durham, NC

Home | Current Version | Previous Version | Text Only | Print | Product List | Glossary On
Versions: 1 2 3 4 5 6 7 8 9 10 11 12 13 14 15 16 17 18 19 20 21 22 23 24 25 26
000
FTUS42 KRAH 232320
TAFFAY
TAF
KFAY 232320Z 2400/2424 31005KT P6SM VCSH BKN035
      TEMPO 2400/2404 01010G20KT 5SM -RA BR OVC025
     FM240400 31010G18KT P6SM OVC010
     FM240900 28010KT P6SM SCT025 BKN030
     FM241500 31015G22KT P6SM SCT025=

USA.gov is the U.S. government's official web portal to all federal, state and local government web resources and services.